Time;durP1;ratioP1;P1;durP2;ratioP2;P2;SDS_P1;SDS_P2;PMS_P1;PMS_P2;Temp;Humidity;BMP_temperature;BMP_pressure;BME280_temperature;BME280_humidity;BME280_pressure;Samples;Min_cycle;Max_cycle;Signal;HPM_P1;HPM_P2
2022/01/22 00:00:18;;;;;;;27.20;3.42;;;7.50;99.90;;;;;;4993272;28;20054;-71
2022/01/22 00:02:45;;;;;;;21.23;2.60;;;7.40;99.90;;;;;;4994386;28;20413;-70
2022/01/22 00:05:12;;;;;;;35.60;4.35;;;8.50;99.90;;;;;;4994298;28;20081;-69
2022/01/22 00:07:38;;;;;;;16.77;2.38;;;7.20;99.90;;;;;;4993329;28;20093;-71
2022/01/22 00:10:07;;;;;;;29.35;3.55;;;7.00;99.90;;;;;;4994246;28;20478;-71
2022/01/22 00:15:05;;;;;;;24.90;2.97;;;7.20;99.90;;;;;;4992913;28;20051;-70
2022/01/22 00:17:31;;;;;;;30.65;3.47;;;7.10;99.90;;;;;;4992935;28;20100;-70
2022/01/22 00:19:56;;;;;;;36.78;3.22;;;7.10;99.90;;;;;;4994046;28;20046;-70
2022/01/22 00:22:26;;;;;;;22.10;2.92;;;8.30;99.90;;;;;;4993002;28;20050;-71
2022/01/22 00:24:58;;;;;;;22.38;2.70;;;8.10;99.90;;;;;;4994064;28;20164;-71
2022/01/22 00:27:25;;;;;;;31.80;3.85;;;7.50;99.90;;;;;;4992575;28;20058;-71
2022/01/22 00:29:51;;;;;;;42.92;4.07;;;8.00;99.90;;;;;;4992576;28;20055;-71
2022/01/22 00:32:18;;;;;;;37.85;3.90;;;7.70;99.90;;;;;;4993844;28;20061;-71
2022/01/22 00:34:44;;;;;;;38.08;3.63;;;8.00;99.90;;;;;;4993753;28;20497;-72
2022/01/22 00:37:09;;;;;;;44.45;5.28;;;6.90;99.90;;;;;;4994012;28;20050;-72
2022/01/22 00:39:35;;;;;;;63.67;4.93;;;7.00;99.90;;;;;;4992955;28;20046;-72
2022/01/22 00:42:10;;;;;;;53.35;5.35;;;6.90;99.90;;;;;;4993581;28;20082;-71
2022/01/22 00:44:36;;;;;;;28.63;3.25;;;6.70;99.90;;;;;;4992785;28;20058;-72
2022/01/22 00:47:03;;;;;;;21.52;2.22;;;8.60;99.90;;;;;;4992410;28;20442;-71
2022/01/22 00:49:30;;;;;;;23.13;2.22;;;7.00;99.90;;;;;;4993431;28;20141;-70
2022/01/22 00:51:56;;;;;;;16.90;2.20;;;7.00;99.90;;;;;;4993739;28;20148;-72
2022/01/22 00:54:22;;;;;;;;;;;8.20;99.90;;;;;;4993700;28;20498;-71
2022/01/22 00:56:48;;;;;;;18.15;2.45;;;7.80;99.90;;;;;;4992259;28;19968;-72
2022/01/22 00:59:14;;;;;;;26.50;2.90;;;7.20;99.90;;;;;;4993605;28;20479;-71
2022/01/22 01:01:40;;;;;;;;;;;7.10;99.90;;;;;;4976674;28;20506;-72
2022/01/22 01:04:08;;;;;;;22.10;2.90;;;6.90;99.90;;;;;;4993305;28;19922;-73
2022/01/22 01:06:34;;;;;;;28.05;2.97;;;7.30;99.90;;;;;;4993281;28;20054;-71
2022/01/22 01:09:01;;;;;;;18.00;1.92;;;7.50;99.90;;;;;;4992061;28;20042;-70
2022/01/22 01:11:29;;;;;;;23.05;2.67;;;8.00;99.90;;;;;;4992066;28;20467;-71
2022/01/22 01:13:58;;;;;;;28.60;2.45;;;8.10;99.90;;;;;;4992112;28;20050;-70
2022/01/22 01:33:13;;;;;;;18.60;2.92;;;6.70;99.90;;;;;;4996358;28;20145;-71
2022/01/22 01:35:40;;;;;;;23.00;2.40;;;7.10;99.90;;;;;;4979579;28;20348;-72
2022/01/22 01:38:07;;;;;;;20.10;2.75;;;6.90;99.90;;;;;;4997433;28;20117;-71
2022/01/22 01:40:36;;;;;;;18.83;2.30;;;8.60;99.90;;;;;;4996880;28;20050;-70
2022/01/22 01:43:25;;;;;;;24.65;2.30;;;7.00;99.90;;;;;;4980230;28;20137;-71
2022/01/22 01:45:51;;;;;;;13.23;1.90;;;7.40;99.90;;;;;;4995839;28;20050;-71
2022/01/22 01:48:22;;;;;;;12.70;1.70;;;6.40;99.90;;;;;;4997187;28;20046;-70
2022/01/22 01:50:47;;;;;;;18.73;2.28;;;6.80;99.90;;;;;;4997185;28;20520;-72
2022/01/22 01:58:14;;;;;;;17.55;1.92;;;6.70;99.90;;;;;;4995393;28;20418;-71
2022/01/22 02:00:40;;;;;;;21.15;2.80;;;7.20;99.90;;;;;;4979251;28;20479;-71
2022/01/22 02:03:06;;;;;;;18.27;2.42;;;7.50;99.90;;;;;;4995503;28;20133;-71
2022/01/22 02:05:34;;;;;;;19.70;2.50;;;6.70;99.90;;;;;;4995369;28;20482;-71
2022/01/22 02:08:00;;;;;;;16.80;2.05;;;7.80;99.90;;;;;;4995482;28;20054;-71
2022/01/22 02:10:29;;;;;;;23.02;1.95;;;6.90;99.90;;;;;;4995100;28;20054;-71
2022/01/22 02:23:43;;;;;;;17.85;1.70;;;6.90;99.90;;;;;;4995340;28;20077;-71
2022/01/22 02:26:11;;;;;;;22.02;1.83;;;6.90;99.90;;;;;;4995248;28;20050;-71
2022/01/22 02:28:37;;;;;;;18.38;2.15;;;7.10;99.90;;;;;;4996120;28;20050;-71
2022/01/22 02:31:20;;;;;;;16.83;1.75;;;6.60;99.90;;;;;;4994690;28;20097;-71
2022/01/22 02:39:00;;;;;;;17.92;2.28;;;6.90;99.90;;;;;;4995040;28;20046;-70
2022/01/22 02:41:26;;;;;;;25.10;2.20;;;6.70;99.90;;;;;;4994774;28;20117;-71
2022/01/22 02:43:54;;;;;;;23.58;2.30;;;6.80;99.90;;;;;;4994787;28;20104;-71
2022/01/22 02:46:23;;;;;;;18.00;1.60;;;6.40;99.90;;;;;;4994521;28;20494;-71
2022/01/22 02:48:50;;;;;;;16.70;1.77;;;6.70;99.90;;;;;;4995953;28;20050;-72
2022/01/22 02:51:16;;;;;;;16.08;2.65;;;7.40;99.90;;;;;;4994855;28;20077;-71
2022/01/22 02:53:42;;;;;;;14.35;2.28;;;6.90;99.90;;;;;;4994345;28;20140;-70
2022/01/22 02:56:07;;;;;;;13.82;2.00;;;6.90;99.90;;;;;;4995697;28;20081;-72
2022/01/22 02:58:34;;;;;;;19.15;2.17;;;6.50;99.90;;;;;;4994267;28;20085;-72
2022/01/22 03:00:59;;;;;;;19.27;2.00;;;6.90;99.90;;;;;;4994430;28;20058;-73
2022/01/22 03:03:25;;;;;;;22.90;2.05;;;6.80;99.90;;;;;;4995646;28;20097;-73
2022/01/22 03:05:51;;;;;;;20.70;3.10;;;6.70;99.90;;;;;;4994723;28;20153;-72
2022/01/22 03:08:17;;;;;;;21.73;1.95;;;6.50;99.90;;;;;;4995166;28;20085;-72
2022/01/22 03:10:48;;;;;;;30.33;2.60;;;6.70;99.90;;;;;;4994310;28;20047;-72
2022/01/22 03:16:26;;;;;;;24.65;2.25;;;7.10;99.90;;;;;;4994535;28;20108;-72
2022/01/22 03:29:19;;;;;;;21.83;2.10;;;6.60;99.90;;;;;;4980410;28;20446;-71
2022/01/22 03:31:47;;;;;;;15.38;2.08;;;7.00;99.90;;;;;;4977834;28;20051;-71
2022/01/22 03:34:13;;;;;;;16.10;2.08;;;7.10;99.90;;;;;;4994987;28;20104;-71
2022/01/22 03:36:39;;;;;;;14.43;1.63;;;7.70;99.90;;;;;;4993346;28;20564;-72
2022/01/22 03:39:07;;;;;;;15.60;1.63;;;7.10;99.90;;;;;;4993816;28;20051;-73
2022/01/22 03:41:33;;;;;;;16.90;2.08;;;6.60;99.90;;;;;;4994847;28;20050;-72
2022/01/22 03:43:59;;;;;;;20.35;1.63;;;7.80;99.90;;;;;;4993617;28;20482;-72
2022/01/22 03:46:25;;;;;;;8.30;1.63;;;7.00;99.90;;;;;;4993693;28;20058;-72
2022/01/22 03:48:50;;;;;;;13.80;1.55;;;6.80;99.90;;;;;;4993572;28;20042;-73
2022/01/22 03:51:16;;;;;;;14.75;1.67;;;6.80;99.90;;;;;;4994494;28;20085;-73
2022/01/22 03:53:42;;;;;;;11.32;1.50;;;6.90;99.90;;;;;;4993992;28;20073;-71
2022/01/22 03:56:09;;;;;;;13.60;2.00;;;8.40;99.90;;;;;;4993358;28;20541;-72
2022/01/22 03:58:38;;;;;;;13.80;1.40;;;6.70;99.90;;;;;;4993389;28;20046;-71
2022/01/22 04:04:10;;;;;;;17.25;1.60;;;6.80;99.90;;;;;;4993509;28;20081;-71
2022/01/22 04:09:08;;;;;;;9.50;1.60;;;6.60;99.90;;;;;;4993301;28;20120;-72
2022/01/22 04:11:37;;;;;;;10.55;1.48;;;6.60;99.90;;;;;;4994144;28;20133;-74
2022/01/22 04:14:05;;;;;;;13.88;1.90;;;6.50;99.90;;;;;;4994057;28;20047;-72
2022/01/22 04:16:32;;;;;;;13.75;1.92;;;6.80;99.90;;;;;;4994275;28;20050;-72
2022/01/22 04:24:50;;;;;;;21.95;2.83;;;6.60;99.90;;;;;;4993087;28;20057;-72
2022/01/22 04:27:22;;;;;;;21.42;2.25;;;6.40;99.90;;;;;;4993247;28;20092;-73
2022/01/22 04:29:48;;;;;;;21.70;2.60;;;6.30;99.90;;;;;;4976851;28;20470;-72
2022/01/22 04:32:13;;;;;;;17.63;2.08;;;6.60;99.90;;;;;;5013414;28;20057;-73
2022/01/22 04:34:39;;;;;;;20.13;2.13;;;6.10;99.90;;;;;;4995511;28;20037;-73
2022/01/22 04:37:05;;;;;;;17.88;2.60;;;6.50;99.90;;;;;;4980090;28;20115;-72
2022/01/22 04:39:30;;;;;;;23.92;2.47;;;6.30;99.90;;;;;;5013161;28;20073;-72
2022/01/22 04:41:57;;;;;;;27.33;2.50;;;5.90;99.90;;;;;;5013340;28;20058;-72
2022/01/22 04:44:30;;;;;;;;;;;6.40;99.90;;;;;;4996363;28;20054;-72
2022/01/22 04:47:15;;;;;;;21.63;2.28;;;6.50;99.90;;;;;;4995858;28;19984;-72
2022/01/22 04:52:39;;;;;;;21.30;1.90;;;6.50;99.90;;;;;;4995619;28;20458;-72
2022/01/22 04:55:06;;;;;;;19.92;2.20;;;6.70;99.90;;;;;;4981343;28;20049;-72
2022/01/22 04:57:36;;;;;;;25.70;2.67;;;6.30;99.90;;;;;;4995445;28;20410;-72
2022/01/22 05:00:12;;;;;;;17.58;2.25;;;7.60;99.90;;;;;;5012938;28;20058;-72
2022/01/22 05:02:38;;;;;;;18.02;2.55;;;6.10;99.90;;;;;;4996204;28;20054;-76
2022/01/22 05:05:05;;;;;;;28.15;2.15;;;6.50;99.90;;;;;;5011965;28;20509;-72
2022/01/22 05:07:31;;;;;;;;;;;6.30;99.90;;;;;;4995951;28;20057;-71
2022/01/22 05:09:57;;;;;;;13.57;1.60;;;6.30;99.90;;;;;;5012817;28;20008;-73
2022/01/22 05:12:22;;;;;;;19.85;2.30;;;7.00;99.90;;;;;;4995190;28;20120;-72
2022/01/22 05:14:48;;;;;;;23.35;2.50;;;6.60;99.90;;;;;;4979432;28;20050;-72
2022/01/22 05:17:14;;;;;;;21.17;2.00;;;6.70;99.90;;;;;;5012747;28;20408;-74
2022/01/22 05:24:57;;;;;;;21.52;1.83;;;6.70;99.90;;;;;;4995087;28;20509;-73
2022/01/22 05:38:00;;;;;;;21.35;2.20;;;6.60;99.90;;;;;;4952876;28;20482;-72
2022/01/22 05:40:27;;;;;;;20.88;1.83;;;6.50;99.90;;;;;;4995259;28;20089;-72
2022/01/22 05:42:53;;;;;;;22.95;2.20;;;6.70;99.90;;;;;;4979286;28;20108;-73
2022/01/22 05:45:18;;;;;;;13.95;1.63;;;6.70;99.90;;;;;;5012772;28;20074;-73
2022/01/22 05:47:45;;;;;;;15.50;1.50;;;7.40;99.90;;;;;;5012263;28;20438;-73
2022/01/22 05:50:24;;;;;;;13.88;1.40;;;7.60;99.90;;;;;;4995274;28;20046;-72
2022/01/22 05:52:56;;;;;;;9.52;1.15;;;6.70;99.90;;;;;;4995338;28;20042;-73
2022/01/22 05:55:42;;;;;;;10.07;1.77;;;6.60;99.90;;;;;;4979638;28;20409;-74
2022/01/22 06:00:52;;;;;;;15.27;1.98;;;6.80;99.90;;;;;;4994918;28;20064;-73
2022/01/22 06:03:18;;;;;;;18.63;1.50;;;6.60;99.90;;;;;;5012668;28;20050;-73
2022/01/22 06:05:44;;;;;;;;;;;6.40;99.90;;;;;;4995662;28;20099;-72
2022/01/22 06:08:15;;;;;;;8.98;1.55;;;6.60;99.90;;;;;;4994900;28;19921;-73
2022/01/22 06:10:40;;;;;;;17.42;2.05;;;6.40;99.90;;;;;;4995028;28;20123;-73
2022/01/22 06:13:13;;;;;;;13.88;1.70;;;6.80;99.90;;;;;;4995102;28;20069;-72
2022/01/22 06:15:39;;;;;;;17.17;1.60;;;6.40;99.90;;;;;;4964055;28;20236;-72
2022/01/22 06:18:04;;;;;;;15.68;1.25;;;6.60;99.90;;;;;;4998464;28;20122;-71
2022/01/22 06:20:30;;;;;;;6.70;0.80;;;6.60;99.90;;;;;;4998849;28;20046;-71
2022/01/22 06:22:56;;;;;;;5.85;1.17;;;6.60;99.90;;;;;;5016062;28;20458;-72
2022/01/22 06:25:21;;;;;;;4.32;0.73;;;6.70;99.90;;;;;;5015647;28;20050;-72
2022/01/22 06:27:47;;;;;;;11.57;1.20;;;6.40;99.90;;;;;;4982442;28;20046;-71
2022/01/22 06:30:13;;;;;;;7.88;1.35;;;;;;;;;;4994869;28;20141;-72
2022/01/22 06:32:39;;;;;;;11.82;1.25;;;6.40;99.90;;;;;;4995140;28;20441;-73
2022/01/22 06:35:05;;;;;;;18.70;1.73;;;6.30;99.90;;;;;;4995850;28;20129;-73
2022/01/22 06:37:31;;;;;;;7.50;1.33;;;6.30;99.90;;;;;;4996028;28;20517;-72
2022/01/22 06:41:44;;;;;;;15.65;1.38;;;6.20;99.90;;;;;;4995641;28;20050;-73
2022/01/22 06:42:48;;;;;;;9.93;1.30;;;6.40;99.90;;;;;;4994846;28;20044;-73
2022/01/22 06:45:14;;;;;;;16.55;2.08;;;6.40;99.90;;;;;;4995640;28;20073;-73
2022/01/22 06:47:40;;;;;;;17.50;2.20;;;6.10;99.90;;;;;;4994795;28;20076;-72
2022/01/22 06:50:06;;;;;;;;;;;6.60;99.90;;;;;;4995284;28;20051;-73
2022/01/22 06:52:32;;;;;;;8.82;1.58;;;6.30;99.90;;;;;;4994281;28;19956;-72
2022/01/22 06:54:58;;;;;;;12.85;1.60;;;6.40;99.90;;;;;;4994630;28;20046;-72
2022/01/22 06:57:23;;;;;;;16.65;1.90;;;6.70;99.90;;;;;;4995630;28;20495;-72
2022/01/22 06:59:49;;;;;;;11.60;1.48;;;6.30;99.90;;;;;;4995424;28;20046;-73
2022/01/22 07:02:17;;;;;;;10.00;1.58;;;6.30;99.90;;;;;;4994661;28;20048;-73
2022/01/22 07:04:42;;;;;;;12.05;1.65;;;6.40;99.90;;;;;;4995392;28;20101;-73
2022/01/22 07:07:09;;;;;;;17.08;1.90;;;6.60;99.90;;;;;;4994313;28;20046;-72
2022/01/22 07:09:36;;;;;;;20.83;1.70;;;6.20;99.90;;;;;;4994470;28;20424;-72
2022/01/22 07:12:02;;;;;;;;;;;6.40;99.90;;;;;;4994596;28;20494;-73
2022/01/22 07:14:28;;;;;;;13.02;1.35;;;6.10;99.90;;;;;;4994171;28;19925;-73
2022/01/22 07:16:54;;;;;;;11.73;1.70;;;6.20;99.90;;;;;;4995613;28;20137;-72
2022/01/22 07:19:21;;;;;;;9.45;1.33;;;6.20;99.90;;;;;;4994194;28;20085;-72
2022/01/22 07:21:55;;;;;;;9.38;1.17;;;6.20;99.90;;;;;;4994472;28;20129;-73
2022/01/22 07:24:26;;;;;;;11.32;1.27;;;6.20;99.90;;;;;;4977828;28;20368;-72
2022/01/22 07:26:53;;;;;;;13.55;1.42;;;7.30;99.90;;;;;;4993369;28;20069;-72
2022/01/22 07:29:19;;;;;;;12.88;1.30;;;6.30;99.90;;;;;;4977395;28;20054;-73
2022/01/22 07:31:44;;;;;;;12.07;1.50;;;6.30;99.90;;;;;;4993559;28;20090;-72
2022/01/22 07:34:10;;;;;;;8.82;1.42;;;6.10;99.90;;;;;;4993879;28;20092;-73
2022/01/22 07:36:36;;;;;;;9.57;1.30;;;6.20;99.90;;;;;;4994887;28;20050;-73
2022/01/22 07:39:02;;;;;;;8.05;1.50;;;6.10;99.90;;;;;;4995192;28;20050;-72
2022/01/22 07:41:28;;;;;;;;;;;6.30;99.90;;;;;;4995416;28;20064;-72
2022/01/22 07:43:53;;;;;;;9.00;1.20;;;6.40;99.90;;;;;;4993514;28;20019;-73
2022/01/22 07:46:19;;;;;;;6.65;1.25;;;6.60;99.90;;;;;;5001450;28;20068;-72
2022/01/22 07:48:45;;;;;;;11.00;1.65;;;6.00;99.90;;;;;;5016045;28;20050;-71
2022/01/22 07:51:12;;;;;;;12.30;1.85;;;6.20;99.90;;;;;;5019814;28;20057;-73
2022/01/22 07:53:39;;;;;;;10.07;1.50;;;6.30;99.90;;;;;;4997986;28;20125;-76
2022/01/22 07:56:05;;;;;;;11.90;2.15;;;6.10;99.90;;;;;;5015392;28;20049;-71
2022/01/22 07:58:30;;;;;;;11.88;1.70;;;6.10;99.90;;;;;;5030827;28;20132;-71
2022/01/22 08:00:56;;;;;;;8.35;1.90;;;6.40;99.90;;;;;;5031971;28;20133;-72
2022/01/22 08:03:23;;;;;;;11.93;1.50;;;6.30;99.90;;;;;;5027061;28;20069;-72
2022/01/22 08:05:49;;;;;;;11.13;1.80;;;6.40;99.90;;;;;;4997033;28;20107;-73
2022/01/22 08:08:15;;;;;;;14.75;1.60;;;6.20;99.90;;;;;;5019389;28;20132;-72
2022/01/22 08:10:40;;;;;;;16.88;1.67;;;6.40;99.90;;;;;;5007823;28;20060;-72
2022/01/22 08:13:06;;;;;;;13.07;1.60;;;7.80;99.90;;;;;;5010125;28;20139;-72
2022/01/22 08:15:32;;;;;;;11.48;1.58;;;6.20;99.90;;;;;;4994393;28;20057;-72
2022/01/22 08:18:00;;;;;;;10.15;1.63;;;7.80;99.90;;;;;;5012321;28;20128;-72
2022/01/22 08:20:26;;;;;;;6.40;1.20;;;6.60;99.90;;;;;;4995699;28;20505;-72
2022/01/22 08:22:53;;;;;;;8.43;1.38;;;6.20;99.90;;;;;;5015852;28;20085;-71
2022/01/22 08:25:18;;;;;;;9.65;1.30;;;6.40;99.90;;;;;;5031944;28;20063;-73
2022/01/22 08:30:31;;;;;;;6.30;1.33;;;6.50;99.90;;;;;;5010566;28;20418;-72
2022/01/22 08:38:16;;;;;;;13.15;1.73;;;6.30;99.90;;;;;;5018567;28;20060;-72
2022/01/22 08:40:41;;;;;;;11.68;2.00;;;6.60;99.90;;;;;;4994510;28;20053;-73
2022/01/22 08:43:07;;;;;;;18.33;2.25;;;6.40;99.90;;;;;;5014982;28;20057;-72
2022/01/22 08:45:33;;;;;;;14.50;2.13;;;6.30;99.90;;;;;;5010603;28;20094;-72
2022/01/22 08:47:59;;;;;;;17.42;2.15;;;6.20;99.90;;;;;;4980301;28;20050;-72
2022/01/22 08:50:25;;;;;;;17.98;2.03;;;6.40;99.90;;;;;;4994596;28;20445;-72
2022/01/22 08:52:50;;;;;;;22.52;2.80;;;6.60;99.90;;;;;;5012212;28;20041;-72
2022/01/22 08:55:16;;;;;;;8.07;1.95;;;6.60;99.90;;;;;;5006533;28;20498;-73
2022/01/22 08:57:42;;;;;;;14.25;2.10;;;6.30;99.90;;;;;;5021560;28;20934;-72
2022/01/22 09:00:08;;;;;;;16.15;2.45;;;6.60;99.90;;;;;;5022066;28;20045;-72
2022/01/22 09:02:35;;;;;;;26.65;2.78;;;6.80;99.90;;;;;;5018045;28;20111;-72
2022/01/22 09:05:02;;;;;;;18.77;2.90;;;6.20;99.90;;;;;;5018619;28;20042;-71
2022/01/22 09:07:27;;;;;;;20.75;2.53;;;6.40;99.90;;;;;;5011665;28;20133;-72
2022/01/22 09:09:53;;;;;;;24.25;2.63;;;6.70;99.90;;;;;;5010894;28;20125;-72
2022/01/22 09:12:19;;;;;;;19.30;2.70;;;6.30;99.90;;;;;;5011448;28;20046;-72
2022/01/22 09:14:46;;;;;;;24.98;2.97;;;6.50;99.90;;;;;;5010656;28;20065;-73
2022/01/22 09:17:12;;;;;;;18.48;2.47;;;6.60;99.90;;;;;;4994481;28;20049;-72
2022/01/22 09:19:38;;;;;;;26.30;3.17;;;6.80;99.90;;;;;;5010832;28;20441;-72
2022/01/22 09:22:06;;;;;;;16.77;2.85;;;6.80;99.90;;;;;;5010685;28;20041;-72
2022/01/22 09:24:32;;;;;;;11.45;2.20;;;7.10;99.90;;;;;;5011492;28;20505;-72
2022/01/22 09:27:01;;;;;;;17.38;2.53;;;6.50;99.90;;;;;;5012112;28;20042;-73
2022/01/22 09:29:27;;;;;;;18.85;3.03;;;7.50;99.90;;;;;;5011578;28;20138;-71
2022/01/22 09:31:53;;;;;;;21.45;3.75;;;6.40;99.90;;;;;;5028161;28;20137;-72
2022/01/22 09:34:20;;;;;;;21.60;2.20;;;6.70;99.90;;;;;;5008133;28;20432;-72
2022/01/22 09:36:46;;;;;;;;;;;6.70;99.90;;;;;;5012420;28;20517;-72
2022/01/22 09:39:11;;;;;;;11.25;1.70;;;6.90;99.90;;;;;;5003229;28;20043;-74
2022/01/22 09:41:37;;;;;;;16.85;2.10;;;6.50;99.90;;;;;;5003725;28;20061;-72
2022/01/22 09:44:03;;;;;;;16.38;2.28;;;8.00;99.90;;;;;;5006923;28;20045;-75
2022/01/22 09:46:29;;;;;;;11.40;1.52;;;6.80;99.90;;;;;;5017589;28;20053;-72
2022/01/22 09:48:56;;;;;;;12.70;1.60;;;6.70;99.90;;;;;;5032569;28;20053;-72
2022/01/22 09:51:21;;;;;;;;;;;6.60;99.90;;;;;;5031049;28;21005;-72
2022/01/22 09:53:48;;;;;;;14.65;1.60;;;6.60;99.90;;;;;;5033350;28;19921;-73
2022/01/22 09:56:19;;;;;;;14.10;2.38;;;6.60;99.90;;;;;;5039218;28;20056;-72
2022/01/22 09:58:45;;;;;;;9.15;1.60;;;6.70;99.90;;;;;;5050267;28;20049;-73
2022/01/22 10:01:37;;;;;;;9.38;1.73;;;6.80;99.90;;;;;;5055117;28;20052;-72
2022/01/22 10:04:05;;;;;;;13.32;1.90;;;6.60;99.90;;;;;;5020543;28;20152;-74
2022/01/22 10:06:34;;;;;;;9.25;1.85;;;6.70;99.90;;;;;;5004570;28;20049;-73
2022/01/22 10:09:23;;;;;;;16.77;1.90;;;7.80;99.90;;;;;;5000636;28;20049;-72
2022/01/22 10:12:14;;;;;;;17.02;1.92;;;7.00;99.90;;;;;;5015841;28;20049;-73
2022/01/22 10:15:02;;;;;;;16.58;1.85;;;5.10;99.90;;;;;;5046389;28;20138;-72
2022/01/22 10:17:42;;;;;;;13.57;2.10;;;;;;;;;;5025836;28;20052;-72
2022/01/22 10:20:36;;;;;;;17.17;2.15;;;6.70;99.90;;;;;;5017862;28;20052;-72
2022/01/22 10:23:19;;;;;;;17.08;2.63;;;6.70;99.90;;;;;;5020981;28;20085;-72
2022/01/22 10:25:55;;;;;;;17.58;2.22;;;7.00;99.90;;;;;;5008418;28;20041;-72
2022/01/22 10:28:25;;;;;;;11.60;2.25;;;6.90;99.90;;;;;;5007892;28;20438;-73
2022/01/22 10:30:58;;;;;;;17.95;2.50;;;7.20;99.90;;;;;;5006559;28;20072;-73
2022/01/22 10:33:30;;;;;;;15.25;2.35;;;7.00;99.90;;;;;;5007429;28;20041;-74
2022/01/22 10:36:17;;;;;;;16.77;2.35;;;6.80;99.90;;;;;;5024270;28;20042;-72
2022/01/22 10:38:49;;;;;;;13.05;2.45;;;6.90;99.90;;;;;;5007867;28;20500;-72
2022/01/22 10:41:16;;;;;;;22.60;2.83;;;8.70;99.90;;;;;;5006410;28;20049;-72
2022/01/22 10:43:52;;;;;;;12.75;2.22;;;7.10;99.90;;;;;;5024864;28;20049;-72
2022/01/22 10:46:31;;;;;;;16.77;2.42;;;7.20;99.90;;;;;;5033102;28;20057;-73
2022/01/22 10:49:04;;;;;;;16.55;2.20;;;7.30;99.90;;;;;;5017782;28;20378;-73
2022/01/22 10:51:31;;;;;;;18.23;2.05;;;6.80;99.90;;;;;;5009548;28;20049;-73
2022/01/22 10:54:09;;;;;;;16.20;2.10;;;7.80;99.90;;;;;;5024945;28;20501;-73
2022/01/22 10:56:36;;;;;;;20.83;2.10;;;8.10;99.90;;;;;;5019060;28;20056;-73
2022/01/22 10:59:08;;;;;;;13.13;2.10;;;6.70;99.90;;;;;;5031486;28;20128;-73
2022/01/22 11:01:56;;;;;;;12.15;2.33;;;7.10;99.90;;;;;;5049963;28;20072;-73
2022/01/22 11:04:27;;;;;;;17.70;2.58;;;7.00;99.90;;;;;;5027973;28;20129;-73
2022/01/22 11:06:57;;;;;;;14.43;2.20;;;7.40;99.90;;;;;;5033731;28;20046;-73
2022/01/22 11:09:26;;;;;;;16.77;2.05;;;6.90;99.90;;;;;;5040912;28;20067;-73
2022/01/22 11:11:52;;;;;;;16.35;2.58;;;6.90;99.90;;;;;;5032346;28;20091;-72
2022/01/22 11:14:18;;;;;;;;;;;6.70;99.90;;;;;;5054906;28;20444;-72
2022/01/22 11:16:46;;;;;;;20.52;2.88;;;7.20;99.90;;;;;;5037022;28;19921;-73
2022/01/22 11:19:15;;;;;;;16.48;3.00;;;8.10;99.90;;;;;;5036633;28;20048;-73
2022/01/22 11:21:46;;;;;;;30.90;3.50;;;6.70;99.90;;;;;;5054395;28;20087;-72
2022/01/22 11:24:13;;;;;;;23.70;3.50;;;7.00;99.90;;;;;;5054620;28;20053;-73
2022/01/22 11:26:42;;;;;;;24.52;3.95;;;7.20;99.90;;;;;;5036749;28;20502;-72
2022/01/22 11:29:08;;;;;;;23.60;3.42;;;6.90;99.90;;;;;;5020802;28;20056;-73
2022/01/22 11:31:37;;;;;;;21.90;3.22;;;7.00;99.90;;;;;;5036471;28;20071;-71
2022/01/22 11:34:04;;;;;;;14.70;3.13;;;7.10;99.90;;;;;;5053992;28;20378;-73
2022/01/22 11:36:44;;;;;;;19.10;3.65;;;7.80;99.90;;;;;;5036357;28;20485;-72
2022/01/22 11:39:24;;;;;;;17.80;3.05;;;7.10;99.90;;;;;;5054362;28;20106;-71
2022/01/22 11:41:52;;;;;;;15.82;3.17;;;7.40;99.90;;;;;;5054353;28;20065;-72
2022/01/22 11:44:33;;;;;;;17.65;3.22;;;8.40;99.90;;;;;;5035767;28;20447;-72
2022/01/22 11:47:12;;;;;;;19.90;3.53;;;6.80;99.90;;;;;;5036714;28;20054;-72
2022/01/22 11:49:38;;;;;;;14.75;3.10;;;7.10;99.90;;;;;;5019780;28;20048;-72
2022/01/22 11:52:10;;;;;;;14.40;2.53;;;7.20;99.90;;;;;;5036260;28;20127;-72
2022/01/22 11:55:01;;;;;;;15.00;2.38;;;8.30;99.90;;;;;;5019460;28;20444;-74
2022/01/22 11:57:30;;;;;;;13.32;2.25;;;7.20;99.90;;;;;;5036325;28;20099;-72
2022/01/22 12:00:19;;;;;;;15.30;2.67;;;7.00;99.90;;;;;;5053685;28;20398;-72
2022/01/22 12:03:05;;;;;;;15.63;2.55;;;7.60;99.90;;;;;;5053769;28;20522;-72
2022/01/22 12:05:31;;;;;;;17.88;3.08;;;7.50;99.90;;;;;;5035248;28;20386;-72
2022/01/22 12:07:58;;;;;;;21.05;2.83;;;8.00;99.90;;;;;;5053694;28;20052;-72
2022/01/22 12:10:37;;;;;;;17.38;2.35;;;8.60;99.90;;;;;;5035870;28;20048;-72
2022/01/22 12:16:12;;;;;;;12.95;2.47;;;7.60;99.90;;;;;;5035767;28;20064;-73
2022/01/22 12:18:44;;;;;;;11.05;2.03;;;7.40;99.90;;;;;;5035412;28;20060;-73
2022/01/22 12:21:31;;;;;;;8.43;2.38;;;8.20;99.90;;;;;;5052716;28;20048;-73
2022/01/22 12:23:58;;;;;;;7.80;2.13;;;7.20;99.90;;;;;;5035570;28;20056;-73
2022/01/22 12:26:48;;;;;;;16.88;2.67;;;7.50;99.90;;;;;;5053155;28;20041;-73
2022/01/22 12:29:31;;;;;;;14.90;2.22;;;7.40;99.90;;;;;;5036079;28;20071;-74
2022/01/22 12:32:18;;;;;;;15.70;2.90;;;6.70;99.90;;;;;;5035348;28;20057;-73
2022/01/22 12:34:57;;;;;;;;;;;7.10;99.90;;;;;;5053484;28;20041;-73
2022/01/22 12:37:24;;;;;;;14.50;2.38;;;7.00;99.90;;;;;;5035370;28;19921;-73
2022/01/22 12:39:53;;;;;;;17.83;2.90;;;6.30;99.90;;;;;;5053160;28;20053;-73
2022/01/22 12:42:32;;;;;;;14.05;2.45;;;7.40;99.90;;;;;;5035385;28;20057;-73
2022/01/22 12:45:00;;;;;;;11.15;2.50;;;8.20;99.90;;;;;;5019139;28;20534;-73
2022/01/22 12:47:27;;;;;;;20.30;2.63;;;7.40;99.90;;;;;;5053244;28;20128;-73
2022/01/22 12:50:05;;;;;;;10.25;2.38;;;7.30;99.90;;;;;;5035050;28;20056;-72
2022/01/22 12:52:33;;;;;;;20.63;2.83;;;7.30;99.90;;;;;;5018618;28;20041;-74
2022/01/22 12:55:00;;;;;;;8.52;2.13;;;8.60;99.90;;;;;;5052807;28;20395;-73
2022/01/22 12:57:27;;;;;;;16.02;2.58;;;7.40;99.90;;;;;;5052609;28;20056;-73
2022/01/22 13:00:08;;;;;;;17.38;2.63;;;7.00;99.90;;;;;;5052879;28;20055;-73
2022/01/22 13:02:40;;;;;;;16.70;2.53;;;6.90;99.90;;;;;;5035001;28;20094;-73
2022/01/22 13:05:07;;;;;;;12.95;2.42;;;7.20;99.90;;;;;;5034970;28;20476;-73
2022/01/22 13:07:53;;;;;;;15.40;2.53;;;7.10;99.90;;;;;;5034954;28;20124;-73
2022/01/22 13:10:23;;;;;;;21.33;3.50;;;7.70;99.90;;;;;;5035121;28;20049;-73
2022/01/22 13:12:49;;;;;;;16.25;2.97;;;8.30;99.90;;;;;;5034813;28;20560;-73
2022/01/22 13:15:15;;;;;;;;;;;7.90;99.90;;;;;;5053069;28;20128;-74
2022/01/22 13:17:42;;;;;;;11.05;1.95;;;7.50;99.90;;;;;;5034577;28;19975;-73
2022/01/22 13:20:18;;;;;;;;;;;7.10;99.90;;;;;;5053110;28;20409;-74
2022/01/22 13:22:43;;;;;;;11.85;2.55;;;7.20;99.90;;;;;;5035061;28;19974;-73
2022/01/22 13:25:12;;;;;;;24.85;3.15;;;8.50;99.90;;;;;;5052506;28;20040;-73
2022/01/22 13:27:39;;;;;;;18.50;2.45;;;6.80;99.90;;;;;;5056756;28;20044;-73
2022/01/22 13:30:09;;;;;;;15.05;2.60;;;7.20;99.90;;;;;;5056591;28;20520;-72
2022/01/22 13:32:50;;;;;;;17.63;2.78;;;6.90;99.90;;;;;;5038127;28;20061;-72
2022/01/22 13:35:28;;;;;;;14.93;2.03;;;6.80;99.90;;;;;;5038750;28;20079;-72
2022/01/22 13:49:17;;;;;;;13.18;2.15;;;6.30;99.90;;;;;;5056346;28;20503;-73
2022/01/22 13:51:44;;;;;;;6.03;1.52;;;6.60;99.90;;;;;;5056089;28;20052;-73
2022/01/22 13:54:10;;;;;;;18.27;2.13;;;6.70;99.90;;;;;;5056255;28;20041;-73
2022/01/22 13:56:58;;;;;;;9.65;2.25;;;7.00;99.90;;;;;;5056287;28;20045;-73
2022/01/22 13:59:29;;;;;;;10.60;2.30;;;8.00;99.90;;;;;;5038475;28;20126;-72
2022/01/22 14:04:51;;;;;;;10.98;1.70;;;6.90;99.90;;;;;;5021871;28;20060;-72
2022/01/22 14:07:27;;;;;;;9.10;1.83;;;6.50;99.90;;;;;;5056121;28;20045;-72
2022/01/22 14:10:00;;;;;;;11.32;1.70;;;6.60;99.90;;;;;;5038174;28;20060;-72
2022/01/22 14:12:31;;;;;;;13.50;2.08;;;5.70;99.90;;;;;;5013273;28;20049;-72
2022/01/22 14:15:01;;;;;;;22.27;2.30;;;8.10;99.90;;;;;;5015013;28;20041;-72
2022/01/22 14:17:36;;;;;;;15.32;1.55;;;7.40;99.90;;;;;;5015729;28;20057;-73
2022/01/22 14:20:09;;;;;;;10.88;2.00;;;6.70;99.90;;;;;;4998667;28;20089;-72
2022/01/22 14:23:17;;;;;;;13.40;2.10;;;6.80;99.90;;;;;;4998857;28;20037;-73
2022/01/22 14:25:55;;;;;;;10.90;2.25;;;6.60;99.90;;;;;;5005663;28;20180;-74
2022/01/22 14:28:24;;;;;;;14.43;2.00;;;6.50;99.90;;;;;;4998768;28;20052;-74
2022/01/22 14:30:49;;;;;;;13.68;2.13;;;6.50;99.90;;;;;;5015611;28;20050;-74
2022/01/22 14:33:17;;;;;;;16.92;2.22;;;6.70;99.90;;;;;;4998339;28;20053;-73
2022/01/22 14:36:05;;;;;;;15.63;2.03;;;6.50;99.90;;;;;;4998280;28;20057;-74
2022/01/22 14:38:42;;;;;;;19.13;5.63;;;6.50;99.90;;;;;;4997917;28;20049;-74
2022/01/22 14:46:53;;;;;;;10.25;2.22;;;6.40;99.90;;;;;;5007436;28;20054;-72
2022/01/22 14:49:40;;;;;;;11.52;2.17;;;6.20;99.90;;;;;;4993167;28;20050;-73
2022/01/22 14:52:08;;;;;;;9.48;2.08;;;6.30;99.90;;;;;;5009737;28;20585;-73
2022/01/22 14:54:40;;;;;;;10.25;1.58;;;6.40;99.90;;;;;;5035134;28;20033;-72
2022/01/22 14:57:08;;;;;;;9.75;1.50;;;6.60;99.90;;;;;;5027154;28;20130;-72
2022/01/22 14:59:35;;;;;;;8.82;1.63;;;6.70;99.90;;;;;;5032896;28;20057;-74
2022/01/22 15:02:01;;;;;;;14.18;4.32;;;6.50;99.90;;;;;;5016914;28;20371;-77